CheckWX is a tool to help pilots better visualize weather data.  It is not intended as a substitute for an official pre-flight weather briefing.

00:52:24 UTC

EYVI METAR
Vilnius International Airport
Vilnius, Lithuania
Current

32 mins ago

EYVI 240020Z 30011KT 9999 BKN030 06/03 Q1017 R19/0///95 TEMPO OVC010
Observed
Mar-24 @ 00:20 UTC
Wind
  • 300° at 11 KTS
Visibility
10,000+ meters
Flight Rules
MVFR
Cloud Levels
  • Broken at 3,000' AGL
Temperature
C / 43°F
Dewpoint
C / 37°F
Humidity
81%
Altimeter
30.03" Hg
Pressure
1016.92 hPa
Previous

1 hour ago

EYVI 232350Z 31012KT 9999 OVC014 07/03 Q1017 R19/0///95 TEMPO OVC010
Observed
Mar-23 @ 23:50 UTC
Wind
  • 310° at 12 KTS
Visibility
10,000+ meters
Flight Rules
MVFR
Cloud Levels
  • Overcast at 1,400' AGL
Temperature
C / 45°F
Dewpoint
C / 37°F
Humidity
76%
Altimeter
30.03" Hg
Pressure
1016.92 hPa
Previous

2 hours ago

EYVI 232320Z 30014KT 260V320 9999 OVC015 08/04 Q1017 R19/0///95 TEMPO OVC010
Observed
Mar-23 @ 23:20 UTC
Wind
  • 300° at 14 KTS
Visibility
10,000+ meters
Flight Rules
MVFR
Cloud Levels
  • Overcast at 1,500' AGL
Temperature
C / 46°F
Dewpoint
C / 39°F
Humidity
76%
Altimeter
30.03" Hg
Pressure
1016.92 hPa